sensor_id;sensor_type;location;lat;lon;timestamp;pressure;altitude;pressure_sealevel;temperature;humidity
20825;BME280;10573;50.936;6.978;2023-02-28T00:02:19;102529.47;;;3.21;51.98
20825;BME280;10573;50.936;6.978;2023-02-28T00:04:45;102532.78;;;3.29;51.74
20825;BME280;10573;50.936;6.978;2023-02-28T00:07:18;102531.00;;;3.28;51.37
20825;BME280;10573;50.936;6.978;2023-02-28T00:09:43;102523.53;;;3.36;51.50
20825;BME280;10573;50.936;6.978;2023-02-28T00:12:09;102534.13;;;3.16;51.57
20825;BME280;10573;50.936;6.978;2023-02-28T00:14:36;102532.47;;;3.12;51.68
20825;BME280;10573;50.936;6.978;2023-02-28T00:17:01;102532.31;;;3.16;51.98
20825;BME280;10573;50.936;6.978;2023-02-28T00:19:27;102531.00;;;3.28;52.05
20825;BME280;10573;50.936;6.978;2023-02-28T00:21:52;102530.03;;;3.04;52.47
20825;BME280;10573;50.936;6.978;2023-02-28T00:24:18;102526.88;;;3.18;51.74
20825;BME280;10573;50.936;6.978;2023-02-28T00:26:43;102533.22;;;3.17;52.08
20825;BME280;10573;50.936;6.978;2023-02-28T00:29:09;102524.91;;;3.23;51.78
20825;BME280;10573;50.936;6.978;2023-02-28T00:31:35;102529.78;;;3.12;51.94
20825;BME280;10573;50.936;6.978;2023-02-28T00:34:00;102529.47;;;3.21;51.35
20825;BME280;10573;50.936;6.978;2023-02-28T00:36:26;102528.94;;;3.10;52.00
20825;BME280;10573;50.936;6.978;2023-02-28T00:38:51;102541.28;;;2.90;52.17
20825;BME280;10573;50.936;6.978;2023-02-28T00:41:17;102535.06;;;2.88;52.44
20825;BME280;10573;50.936;6.978;2023-02-28T00:43:42;102536.97;;;2.84;52.62
20825;BME280;10573;50.936;6.978;2023-02-28T00:46:08;102529.25;;;2.74;52.86
20825;BME280;10573;50.936;6.978;2023-02-28T00:48:33;102530.72;;;2.84;52.72
20825;BME280;10573;50.936;6.978;2023-02-28T00:50:59;102528.19;;;2.79;52.60
20825;BME280;10573;50.936;6.978;2023-02-28T00:53:25;102537.72;;;2.61;52.61
20825;BME280;10573;50.936;6.978;2023-02-28T00:55:50;102529.34;;;2.71;52.84
20825;BME280;10573;50.936;6.978;2023-02-28T00:58:16;102532.66;;;2.79;52.78
20825;BME280;10573;50.936;6.978;2023-02-28T01:00:41;102534.00;;;2.65;53.23
20825;BME280;10573;50.936;6.978;2023-02-28T01:03:06;102541.88;;;2.72;52.70
20825;BME280;10573;50.936;6.978;2023-02-28T01:05:32;102538.81;;;2.56;53.43
20825;BME280;10573;50.936;6.978;2023-02-28T01:07:57;102529.31;;;2.72;53.32
20825;BME280;10573;50.936;6.978;2023-02-28T01:10:23;102532.72;;;2.77;52.86
20825;BME280;10573;50.936;6.978;2023-02-28T01:12:48;102541.41;;;2.59;53.01
20825;BME280;10573;50.936;6.978;2023-02-28T01:15:14;102535.00;;;2.90;52.84
20825;BME280;10573;50.936;6.978;2023-02-28T01:17:39;102531.63;;;2.83;53.03
20825;BME280;10573;50.936;6.978;2023-02-28T01:20:05;102534.91;;;2.93;52.43
20825;BME280;10573;50.936;6.978;2023-02-28T01:22:30;102525.56;;;2.76;53.02
20825;BME280;10573;50.936;6.978;2023-02-28T01:24:56;102534.94;;;2.64;52.97
20825;BME280;10573;50.936;6.978;2023-02-28T01:27:21;102532.91;;;2.71;53.20
20825;BME280;10573;50.936;6.978;2023-02-28T01:29:47;102538.28;;;2.73;53.10
20825;BME280;10573;50.936;6.978;2023-02-28T01:32:12;102529.88;;;2.82;52.74
20825;BME280;10573;50.936;6.978;2023-02-28T01:34:37;102539.94;;;2.77;52.90
20825;BME280;10573;50.936;6.978;2023-02-28T01:37:03;102537.75;;;2.88;52.98
20825;BME280;10573;50.936;6.978;2023-02-28T01:39:29;102525.81;;;2.97;52.64
20825;BME280;10573;50.936;6.978;2023-02-28T01:41:54;102528.22;;;2.78;52.85
20825;BME280;10573;50.936;6.978;2023-02-28T01:44:55;102528.44;;;2.72;52.93
20825;BME280;10573;50.936;6.978;2023-02-28T01:47:23;102524.28;;;2.61;52.89
20825;BME280;10573;50.936;6.978;2023-02-28T01:49:50;102526.72;;;2.69;53.20
20825;BME280;10573;50.936;6.978;2023-02-28T01:52:17;102517.91;;;2.64;53.36
20825;BME280;10573;50.936;6.978;2023-02-28T01:54:47;102517.56;;;2.75;52.93
20825;BME280;10573;50.936;6.978;2023-02-28T01:57:18;102518.78;;;2.64;52.97
20825;BME280;10573;50.936;6.978;2023-02-28T01:59:51;102523.34;;;2.62;53.38
20825;BME280;10573;50.936;6.978;2023-02-28T02:02:19;102515.28;;;2.62;53.15
20825;BME280;10573;50.936;6.978;2023-02-28T02:04:59;102517.56;;;2.75;53.39
20825;BME280;10573;50.936;6.978;2023-02-28T02:07:29;102514.88;;;2.75;53.09
20825;BME280;10573;50.936;6.978;2023-02-28T02:10:02;102510.09;;;2.56;52.98
20825;BME280;10573;50.936;6.978;2023-02-28T02:15:42;102508.88;;;2.66;53.22
20825;BME280;10573;50.936;6.978;2023-02-28T02:26:51;102499.53;;;2.50;52.79
20825;BME280;10573;50.936;6.978;2023-02-28T02:32:30;102488.63;;;2.26;53.61
20825;BME280;10573;50.936;6.978;2023-02-28T02:35:12;102494.00;;;2.55;53.20
20825;BME280;10573;50.936;6.978;2023-02-28T02:37:50;102495.91;;;2.51;53.11
20825;BME280;10573;50.936;6.978;2023-02-28T02:40:22;102490.50;;;2.51;52.94
20825;BME280;10573;50.936;6.978;2023-02-28T02:43:13;102496.78;;;2.23;53.04
20825;BME280;10573;50.936;6.978;2023-02-28T02:45:45;102483.44;;;2.20;52.60
20825;BME280;10573;50.936;6.978;2023-02-28T02:48:17;102488.78;;;2.50;52.29
20825;BME280;10573;50.936;6.978;2023-02-28T02:51:00;102490.72;;;2.45;51.97
20825;BME280;10573;50.936;6.978;2023-02-28T02:53:33;102496.09;;;2.45;52.11
20825;BME280;10573;50.936;6.978;2023-02-28T02:56:01;102497.44;;;2.31;52.16
20825;BME280;10573;50.936;6.978;2023-02-28T02:58:33;102502.56;;;2.39;52.07
20825;BME280;10573;50.936;6.978;2023-02-28T03:01:01;102506.25;;;2.37;51.86
20825;BME280;10573;50.936;6.978;2023-02-28T03:03:29;102498.50;;;2.54;51.63
20825;BME280;10573;50.936;6.978;2023-02-28T03:06:00;102495.66;;;2.59;51.45
20825;BME280;10573;50.936;6.978;2023-02-28T03:08:28;102499.88;;;2.39;51.36
20825;BME280;10573;50.936;6.978;2023-02-28T03:11:01;102497.88;;;2.46;51.30
20825;BME280;10573;50.936;6.978;2023-02-28T03:17:00;102484.94;;;2.57;51.35
20825;BME280;10573;50.936;6.978;2023-02-28T03:24:48;102478.94;;;2.49;50.39
20825;BME280;10573;50.936;6.978;2023-02-28T03:28:00;102481.97;;;2.38;50.24
20825;BME280;10573;50.936;6.978;2023-02-28T03:30:51;102484.16;;;2.54;50.98
20825;BME280;10573;50.936;6.978;2023-02-28T03:33:38;102488.03;;;2.45;50.66
20825;BME280;10573;50.936;6.978;2023-02-28T03:36:13;102478.38;;;2.38;50.73
20825;BME280;10573;50.936;6.978;2023-02-28T03:38:47;102477.28;;;2.45;49.76
20825;BME280;10573;50.936;6.978;2023-02-28T03:41:30;102478.72;;;2.28;50.14
20825;BME280;10573;50.936;6.978;2023-02-28T03:44:01;102484.09;;;2.55;49.23
20825;BME280;10573;50.936;6.978;2023-02-28T03:46:31;102481.94;;;2.40;49.67
20825;BME280;10573;50.936;6.978;2023-02-28T03:49:20;102479.19;;;2.13;49.15
20825;BME280;10573;50.936;6.978;2023-02-28T03:51:48;102480.47;;;1.70;50.34
20825;BME280;10573;50.936;6.978;2023-02-28T03:54:23;102479.16;;;1.84;50.09
20825;BME280;10573;50.936;6.978;2023-02-28T03:59:59;102481.13;;;2.08;49.96
20825;BME280;10573;50.936;6.978;2023-02-28T04:02:25;102481.94;;;1.80;49.96
20825;BME280;10573;50.936;6.978;2023-02-28T04:04:51;102487.81;;;1.94;50.30
20825;BME280;10573;50.936;6.978;2023-02-28T04:07:18;102488.09;;;2.15;49.99
20825;BME280;10573;50.936;6.978;2023-02-28T04:09:43;102491.88;;;2.08;50.01
20825;BME280;10573;50.936;6.978;2023-02-28T04:12:09;102488.28;;;2.09;50.31
20825;BME280;10573;50.936;6.978;2023-02-28T04:14:34;102492.25;;;1.95;50.62
20825;BME280;10573;50.936;6.978;2023-02-28T04:17:00;102496.38;;;2.07;50.69
20825;BME280;10573;50.936;6.978;2023-02-28T04:19:25;102494.06;;;1.95;51.04
20825;BME280;10573;50.936;6.978;2023-02-28T04:21:53;102496.84;;;1.92;50.94
20825;BME280;10573;50.936;6.978;2023-02-28T04:24:21;102491.97;;;2.05;50.95
20825;BME280;10573;50.936;6.978;2023-02-28T04:26:49;102495.13;;;1.89;51.10
20825;BME280;10573;50.936;6.978;2023-02-28T04:29:23;102494.41;;;1.84;51.48
20825;BME280;10573;50.936;6.978;2023-02-28T04:31:48;102502.53;;;1.81;51.96
20825;BME280;10573;50.936;6.978;2023-02-28T04:34:14;102493.94;;;1.99;51.68
20825;BME280;10573;50.936;6.978;2023-02-28T04:36:40;102492.38;;;1.92;52.17
20825;BME280;10573;50.936;6.978;2023-02-28T04:39:05;102500.09;;;2.03;51.85
20825;BME280;10573;50.936;6.978;2023-02-28T04:41:31;102500.47;;;1.91;51.85
20825;BME280;10573;50.936;6.978;2023-02-28T04:43:56;102502.53;;;1.81;52.47
20825;BME280;10573;50.936;6.978;2023-02-28T04:46:22;102506.81;;;1.88;52.47
20825;BME280;10573;50.936;6.978;2023-02-28T04:48:48;102505.84;;;1.59;52.78
20825;BME280;10573;50.936;6.978;2023-02-28T04:51:15;102515.38;;;1.71;53.07
20825;BME280;10573;50.936;6.978;2023-02-28T04:53:41;102515.59;;;1.93;52.56
20825;BME280;10573;50.936;6.978;2023-02-28T04:56:09;102516.44;;;1.65;53.01
20825;BME280;10573;50.936;6.978;2023-02-28T04:58:36;102520.09;;;1.93;52.29
20825;BME280;10573;50.936;6.978;2023-02-28T05:01:28;102516.72;;;1.86;52.46
20825;BME280;10573;50.936;6.978;2023-02-28T05:03:53;102509.84;;;1.76;53.10
20825;BME280;10573;50.936;6.978;2023-02-28T05:06:20;102519.56;;;1.80;52.82
20825;BME280;10573;50.936;6.978;2023-02-28T05:08:46;102520.38;;;1.52;53.02
20825;BME280;10573;50.936;6.978;2023-02-28T05:11:17;102524.19;;;1.76;52.85
20825;BME280;10573;50.936;6.978;2023-02-28T05:13:43;102525.03;;;1.77;53.13
20825;BME280;10573;50.936;6.978;2023-02-28T05:16:09;102526.91;;;1.75;53.06
20825;BME280;10573;50.936;6.978;2023-02-28T05:18:35;102522.41;;;1.44;53.28
20825;BME280;10573;50.936;6.978;2023-02-28T05:21:00;102527.25;;;1.62;53.39
20825;BME280;10573;50.936;6.978;2023-02-28T05:23:29;102525.16;;;1.74;53.12
20825;BME280;10573;50.936;6.978;2023-02-28T05:25:54;102524.94;;;1.80;52.51
20825;BME280;10573;50.936;6.978;2023-02-28T05:28:20;102521.44;;;1.78;52.69
20825;BME280;10573;50.936;6.978;2023-02-28T05:30:46;102516.03;;;1.48;52.79
20825;BME280;10573;50.936;6.978;2023-02-28T05:33:12;102511.72;;;1.41;53.16
20825;BME280;10573;50.936;6.978;2023-02-28T05:35:39;102520.53;;;1.46;52.81
20825;BME280;10573;50.936;6.978;2023-02-28T05:38:05;102515.94;;;1.51;52.53
20825;BME280;10573;50.936;6.978;2023-02-28T05:40:30;102517.25;;;1.67;51.96
20825;BME280;10573;50.936;6.978;2023-02-28T05:42:56;102523.53;;;1.68;52.17
20825;BME280;10573;50.936;6.978;2023-02-28T05:45:21;102527.59;;;1.50;52.14
20825;BME280;10573;50.936;6.978;2023-02-28T05:47:47;102517.66;;;1.54;52.00
20825;BME280;10573;50.936;6.978;2023-02-28T05:50:12;102519.56;;;1.81;51.20
20825;BME280;10573;50.936;6.978;2023-02-28T05:52:37;102524.88;;;1.83;51.34
20825;BME280;10573;50.936;6.978;2023-02-28T05:55:03;102529.28;;;1.86;50.87
20825;BME280;10573;50.936;6.978;2023-02-28T05:57:29;102525.25;;;1.69;51.26
20825;BME280;10573;50.936;6.978;2023-02-28T05:59:54;102525.34;;;1.66;51.19
20825;BME280;10573;50.936;6.978;2023-02-28T06:02:19;102530.41;;;1.77;51.08
20825;BME280;10573;50.936;6.978;2023-02-28T06:04:45;102520.91;;;1.65;51.10
20825;BME280;10573;50.936;6.978;2023-02-28T06:07:11;102524.09;;;1.79;51.32
20825;BME280;10573;50.936;6.978;2023-02-28T06:09:37;102526.06;;;1.73;51.07
20825;BME280;10573;50.936;6.978;2023-02-28T06:12:05;102515.47;;;1.66;50.77
20825;BME280;10573;50.936;6.978;2023-02-28T06:14:32;102525.97;;;1.76;50.55
20825;BME280;10573;50.936;6.978;2023-02-28T06:16:59;102522.75;;;1.94;50.50
20825;BME280;10573;50.936;6.978;2023-02-28T06:19:25;102527.63;;;1.81;50.76
20825;BME280;10573;50.936;6.978;2023-02-28T06:21:51;102521.09;;;1.59;50.94
20825;BME280;10573;50.936;6.978;2023-02-28T06:24:21;102532.91;;;1.84;50.49
20825;BME280;10573;50.936;6.978;2023-02-28T06:26:47;102533.50;;;1.94;50.20
20825;BME280;10573;50.936;6.978;2023-02-28T06:29:12;102533.69;;;1.88;50.14
20825;BME280;10573;50.936;6.978;2023-02-28T06:31:44;102535.63;;;1.83;50.08
20825;BME280;10573;50.936;6.978;2023-02-28T06:34:11;102539.25;;;1.82;49.76
20825;BME280;10573;50.936;6.978;2023-02-28T06:36:40;102538.47;;;1.77;50.07
20825;BME280;10573;50.936;6.978;2023-02-28T06:39:06;102541.06;;;1.81;50.12
20825;BME280;10573;50.936;6.978;2023-02-28T06:41:32;102546.38;;;1.83;49.86
20825;BME280;10573;50.936;6.978;2023-02-28T06:44:10;102550.16;;;1.76;50.19
20825;BME280;10573;50.936;6.978;2023-02-28T06:46:36;102559.22;;;1.72;49.74
20825;BME280;10573;50.936;6.978;2023-02-28T06:49:03;102563.03;;;1.64;50.17
20825;BME280;10573;50.936;6.978;2023-02-28T06:51:29;102568.13;;;1.74;50.34
20825;BME280;10573;50.936;6.978;2023-02-28T06:53:54;102567.53;;;1.95;49.58
20825;BME280;10573;50.936;6.978;2023-02-28T06:56:20;102573.56;;;2.04;49.61
20825;BME280;10573;50.936;6.978;2023-02-28T06:58:49;102569.47;;;1.90;49.81
20825;BME280;10573;50.936;6.978;2023-02-28T07:01:16;102567.00;;;2.14;49.08
20825;BME280;10573;50.936;6.978;2023-02-28T07:03:42;102573.75;;;2.27;49.16
20825;BME280;10573;50.936;6.978;2023-02-28T07:06:07;102579.28;;;1.91;48.68
20825;BME280;10573;50.936;6.978;2023-02-28T07:08:34;102574.66;;;1.96;48.79
20825;BME280;10573;50.936;6.978;2023-02-28T07:10:59;102575.44;;;2.31;48.84
20825;BME280;10573;50.936;6.978;2023-02-28T07:13:25;102573.44;;;2.66;47.82
20825;BME280;10573;50.936;6.978;2023-02-28T07:15:58;102584.25;;;2.37;47.37
20825;BME280;10573;50.936;6.978;2023-02-28T07:18:23;102580.03;;;2.56;47.33
20825;BME280;10573;50.936;6.978;2023-02-28T07:20:49;102574.22;;;2.98;46.81
20825;BME280;10573;50.936;6.978;2023-02-28T07:23:15;102575.88;;;3.29;46.19
20825;BME280;10573;50.936;6.978;2023-02-28T07:25:40;102575.75;;;3.32;45.34
20825;BME280;10573;50.936;6.978;2023-02-28T07:28:06;102579.50;;;3.28;44.66
20825;BME280;10573;50.936;6.978;2023-02-28T07:30:31;102579.38;;;3.31;45.22
20825;BME280;10573;50.936;6.978;2023-02-28T07:32:56;102579.53;;;3.79;44.37
20825;BME280;10573;50.936;6.978;2023-02-28T07:35:22;102577.19;;;3.93;43.74
20825;BME280;10573;50.936;6.978;2023-02-28T07:37:47;102576.97;;;4.23;43.14
20825;BME280;10573;50.936;6.978;2023-02-28T07:40:13;102578.13;;;4.16;42.29
20825;BME280;10573;50.936;6.978;2023-02-28T07:42:41;102579.53;;;4.50;42.18
20825;BME280;10573;50.936;6.978;2023-02-28T07:45:07;102576.22;;;4.43;42.16
20825;BME280;10573;50.936;6.978;2023-02-28T07:47:33;102578.34;;;4.79;41.38
20825;BME280;10573;50.936;6.978;2023-02-28T07:49:58;102581.13;;;4.56;41.83
20825;BME280;10573;50.936;6.978;2023-02-28T07:52:24;102579.97;;;5.69;42.75
20825;BME280;10573;50.936;6.978;2023-02-28T07:54:50;102568.28;;;5.48;39.81
20825;BME280;10573;50.936;6.978;2023-02-28T07:57:16;102570.88;;;5.51;40.02
20825;BME280;10573;50.936;6.978;2023-02-28T07:59:42;102571.53;;;5.77;39.46
20825;BME280;10573;50.936;6.978;2023-02-28T08:02:15;102571.53;;;5.35;37.71
20825;BME280;10573;50.936;6.978;2023-02-28T08:04:41;102570.31;;;5.63;38.10
20825;BME280;10573;50.936;6.978;2023-02-28T08:07:06;102576.34;;;6.49;37.78
20825;BME280;10573;50.936;6.978;2023-02-28T08:09:33;102575.31;;;6.33;38.54
20825;BME280;10573;50.936;6.978;2023-02-28T08:11:59;102567.84;;;6.57;37.17
20825;BME280;10573;50.936;6.978;2023-02-28T08:14:25;102576.19;;;6.71;36.75
20825;BME280;10573;50.936;6.978;2023-02-28T08:16:50;102573.22;;;6.76;36.67
20825;BME280;10573;50.936;6.978;2023-02-28T08:19:15;102571.72;;;7.25;36.27
20825;BME280;10573;50.936;6.978;2023-02-28T08:21:41;102568.53;;;7.51;34.36
20825;BME280;10573;50.936;6.978;2023-02-28T08:24:06;102569.09;;;7.41;33.77
20825;BME280;10573;50.936;6.978;2023-02-28T08:26:32;102584.09;;;6.57;33.73
20825;BME280;10573;50.936;6.978;2023-02-28T08:28:57;102570.69;;;7.10;34.26
20825;BME280;10573;50.936;6.978;2023-02-28T08:31:23;102576.75;;;7.32;33.34
20825;BME280;10573;50.936;6.978;2023-02-28T08:33:48;102577.53;;;7.17;33.31
20825;BME280;10573;50.936;6.978;2023-02-28T08:36:16;102578.66;;;7.48;32.90
20825;BME280;10573;50.936;6.978;2023-02-28T08:38:42;102577.22;;;7.76;32.37
20825;BME280;10573;50.936;6.978;2023-02-28T08:41:10;102576.41;;;7.21;32.24
20825;BME280;10573;50.936;6.978;2023-02-28T08:43:36;102582.88;;;7.88;31.99
20825;BME280;10573;50.936;6.978;2023-02-28T08:46:02;102574.59;;;7.56;32.33
20825;BME280;10573;50.936;6.978;2023-02-28T08:48:30;102586.81;;;8.32;31.37
20825;BME280;10573;50.936;6.978;2023-02-28T08:50:56;102584.53;;;6.48;33.15
20825;BME280;10573;50.936;6.978;2023-02-28T08:53:22;102582.75;;;7.39;31.51
20825;BME280;10573;50.936;6.978;2023-02-28T08:55:56;102584.09;;;7.48;32.42
20825;BME280;10573;50.936;6.978;2023-02-28T08:58:21;102575.84;;;8.02;31.55
20825;BME280;10573;50.936;6.978;2023-02-28T09:00:47;102578.34;;;7.36;31.46
20825;BME280;10573;50.936;6.978;2023-02-28T09:03:12;102567.09;;;5.95;33.52
20825;BME280;10573;50.936;6.978;2023-02-28T09:05:37;102575.00;;;6.20;33.42
20825;BME280;10573;50.936;6.978;2023-02-28T09:08:03;102573.13;;;6.01;32.92
20825;BME280;10573;50.936;6.978;2023-02-28T09:10:28;102575.00;;;6.20;32.99
20825;BME280;10573;50.936;6.978;2023-02-28T09:12:54;102576.59;;;6.24;33.21
20825;BME280;10573;50.936;6.978;2023-02-28T09:15:19;102567.88;;;5.98;33.11
20825;BME280;10573;50.936;6.978;2023-02-28T09:17:44;102573.03;;;5.63;33.35
20825;BME280;10573;50.936;6.978;2023-02-28T09:20:10;102573.84;;;5.65;32.70
20825;BME280;10573;50.936;6.978;2023-02-28T09:22:36;102566.78;;;5.61;32.53
20825;BME280;10573;50.936;6.978;2023-02-28T09:25:02;102560.56;;;5.80;32.55
20825;BME280;10573;50.936;6.978;2023-02-28T09:27:27;102570.19;;;5.46;33.83
20825;BME280;10573;50.936;6.978;2023-02-28T09:29:52;102562.84;;;5.49;33.46
20825;BME280;10573;50.936;6.978;2023-02-28T09:32:18;102558.63;;;5.63;33.96
20825;BME280;10573;50.936;6.978;2023-02-28T09:34:43;102558.28;;;5.50;32.69
20825;BME280;10573;50.936;6.978;2023-02-28T09:37:09;102565.16;;;5.57;33.03
20825;BME280;10573;50.936;6.978;2023-02-28T09:39:34;102569.25;;;5.47;32.95
20825;BME280;10573;50.936;6.978;2023-02-28T09:42:00;102565.63;;;5.26;33.42
20825;BME280;10573;50.936;6.978;2023-02-28T09:44:35;102561.66;;;5.55;32.98
20825;BME280;10573;50.936;6.978;2023-02-28T09:49:53;102564.63;;;5.28;32.91
20825;BME280;10573;50.936;6.978;2023-02-28T09:52:26;102562.69;;;5.52;33.34
20825;BME280;10573;50.936;6.978;2023-02-28T09:54:53;102563.78;;;5.06;33.71
20825;BME280;10573;50.936;6.978;2023-02-28T09:57:35;102560.97;;;5.70;33.16
20825;BME280;10573;50.936;6.978;2023-02-28T10:02:46;102558.81;;;5.79;33.53
20825;BME280;10573;50.936;6.978;2023-02-28T10:05:20;102561.78;;;5.72;33.25
20825;BME280;10573;50.936;6.978;2023-02-28T10:10:29;102556.91;;;5.81;33.22
20825;BME280;10573;50.936;6.978;2023-02-28T10:12:58;102553.13;;;5.44;33.91
20825;BME280;10573;50.936;6.978;2023-02-28T10:15:26;102553.59;;;5.33;33.38
20825;BME280;10573;50.936;6.978;2023-02-28T10:17:58;102546.06;;;5.62;33.47
20825;BME280;10573;50.936;6.978;2023-02-28T10:20:25;102555.44;;;5.74;33.52
20825;BME280;10573;50.936;6.978;2023-02-28T10:23:02;102549.97;;;5.54;33.77
20825;BME280;10573;50.936;6.978;2023-02-28T10:25:34;102551.34;;;5.84;33.45
20825;BME280;10573;50.936;6.978;2023-02-28T10:28:13;102546.84;;;5.84;33.74
20825;BME280;10573;50.936;6.978;2023-02-28T10:30:48;102556.47;;;5.71;33.66
20825;BME280;10573;50.936;6.978;2023-02-28T10:33:27;102549.91;;;5.96;32.84
20825;BME280;10573;50.936;6.978;2023-02-28T10:35:53;102554.06;;;5.84;33.43
20825;BME280;10573;50.936;6.978;2023-02-28T10:38:25;102548.13;;;5.34;33.98
20825;BME280;10573;50.936;6.978;2023-02-28T10:40:51;102552.84;;;5.70;33.99
20825;BME280;10573;50.936;6.978;2023-02-28T10:43:27;102539.56;;;5.66;33.84
20825;BME280;10573;50.936;6.978;2023-02-28T10:48:29;102539.25;;;5.93;33.99
20825;BME280;10573;50.936;6.978;2023-02-28T10:50:55;102543.06;;;5.88;33.41
20825;BME280;10573;50.936;6.978;2023-02-28T10:56:04;102534.84;;;5.90;33.61
20825;BME280;10573;50.936;6.978;2023-02-28T10:58:50;102532.72;;;5.78;33.81
20825;BME280;10573;50.936;6.978;2023-02-28T11:01:39;102529.19;;;5.96;33.33
20825;BME280;10573;50.936;6.978;2023-02-28T11:04:16;102527.97;;;6.03;33.80
20825;BME280;10573;50.936;6.978;2023-02-28T11:06:43;102526.00;;;6.26;33.93
20825;BME280;10573;50.936;6.978;2023-02-28T11:09:20;102521.47;;;6.08;33.51
20825;BME280;10573;50.936;6.978;2023-02-28T11:11:48;102520.88;;;6.20;33.59
20825;BME280;10573;50.936;6.978;2023-02-28T11:14:50;102517.19;;;6.59;33.22
20825;BME280;10573;50.936;6.978;2023-02-28T11:17:28;102517.13;;;6.61;32.47
20825;BME280;10573;50.936;6.978;2023-02-28T11:20:05;102508.97;;;6.80;32.71
20825;BME280;10573;50.936;6.978;2023-02-28T11:22:37;102507.50;;;6.72;32.00
20825;BME280;10573;50.936;6.978;2023-02-28T11:25:31;102498.75;;;6.67;32.10
20825;BME280;10573;50.936;6.978;2023-02-28T11:28:00;102503.88;;;7.09;32.39
20825;BME280;10573;50.936;6.978;2023-02-28T11:30:38;102507.31;;;7.30;32.14
20825;BME280;10573;50.936;6.978;2023-02-28T11:33:43;102497.59;;;7.26;31.93
20825;BME280;10573;50.936;6.978;2023-02-28T11:36:19;102492.06;;;7.10;32.67
20825;BME280;10573;50.936;6.978;2023-02-28T11:38:46;102499.91;;;7.33;32.26
20825;BME280;10573;50.936;6.978;2023-02-28T11:43:57;102511.31;;;6.68;33.62
20825;BME280;10573;50.936;6.978;2023-02-28T11:46:40;102506.25;;;6.24;33.91
20825;BME280;10573;50.936;6.978;2023-02-28T11:51:49;102511.00;;;6.75;31.83
20825;BME280;10573;50.936;6.978;2023-02-28T11:57:24;102502.75;;;7.30;31.48
20825;BME280;10573;50.936;6.978;2023-02-28T12:05:44;102495.94;;;7.90;30.97
20825;BME280;10573;50.936;6.978;2023-02-28T12:24:57;102475.03;;;13.38;24.76
20825;BME280;10573;50.936;6.978;2023-02-28T12:27:27;102495.16;;;12.90;24.38
20825;BME280;10573;50.936;6.978;2023-02-28T12:29:59;102478.25;;;14.46;23.61
20825;BME280;10573;50.936;6.978;2023-02-28T12:32:33;102500.78;;;13.00;23.57
20825;BME280;10573;50.936;6.978;2023-02-28T12:35:11;102477.72;;;13.97;23.65
20825;BME280;10573;50.936;6.978;2023-02-28T12:40:49;102487.50;;;14.22;23.37
20825;BME280;10573;50.936;6.978;2023-02-28T12:43:16;102474.56;;;14.13;23.07
20825;BME280;10573;50.936;6.978;2023-02-28T12:48:22;102472.25;;;13.97;22.90
20825;BME280;10573;50.936;6.978;2023-02-28T12:50:50;102479.34;;;14.98;22.05
20825;BME280;10573;50.936;6.978;2023-02-28T12:53:27;102465.78;;;15.91;21.42
20825;BME280;10573;50.936;6.978;2023-02-28T12:58:43;102442.97;;;12.08;25.59
20825;BME280;10573;50.936;6.978;2023-02-28T13:04:24;102433.03;;;12.55;24.94
20825;BME280;10573;50.936;6.978;2023-02-28T13:09:32;102450.84;;;15.10;22.29
20825;BME280;10573;50.936;6.978;2023-02-28T13:11:58;102443.97;;;13.15;23.78
20825;BME280;10573;50.936;6.978;2023-02-28T13:14:36;102419.06;;;13.07;24.97
20825;BME280;10573;50.936;6.978;2023-02-28T13:17:03;102431.38;;;13.71;24.42
20825;BME280;10573;50.936;6.978;2023-02-28T13:19:46;102430.59;;;12.88;24.31
20825;BME280;10573;50.936;6.978;2023-02-28T13:24:54;102445.75;;;16.90;20.64
20825;BME280;10573;50.936;6.978;2023-02-28T13:29:50;102451.94;;;17.31;20.08
20825;BME280;10573;50.936;6.978;2023-02-28T13:39:47;102439.63;;;17.16;20.20
20825;BME280;10573;50.936;6.978;2023-02-28T13:48:00;102434.00;;;16.98;19.68
20825;BME280;10573;50.936;6.978;2023-02-28T13:56:10;102426.00;;;16.36;20.46
20825;BME280;10573;50.936;6.978;2023-02-28T13:58:54;102425.25;;;14.89;21.67
20825;BME280;10573;50.936;6.978;2023-02-28T14:07:04;102408.78;;;16.83;20.12
20825;BME280;10573;50.936;6.978;2023-02-28T14:09:37;102411.00;;;17.36;19.80
20825;BME280;10573;50.936;6.978;2023-02-28T14:17:53;102410.13;;;18.75;18.42
20825;BME280;10573;50.936;6.978;2023-02-28T14:20:21;102398.22;;;17.83;19.28
20825;BME280;10573;50.936;6.978;2023-02-28T14:23:19;102405.94;;;18.89;18.45
20825;BME280;10573;50.936;6.978;2023-02-28T14:31:07;102392.78;;;18.47;18.72
20825;BME280;10573;50.936;6.978;2023-02-28T14:36:39;102402.25;;;17.88;18.92
20825;BME280;10573;50.936;6.978;2023-02-28T14:39:11;102386.91;;;16.52;20.93
20825;BME280;10573;50.936;6.978;2023-02-28T14:41:41;102387.16;;;17.55;19.28
20825;BME280;10573;50.936;6.978;2023-02-28T14:44:25;102382.63;;;15.89;20.78
20825;BME280;10573;50.936;6.978;2023-02-28T14:46:56;102377.06;;;16.59;20.70
20825;BME280;10573;50.936;6.978;2023-02-28T14:49:36;102382.34;;;17.29;20.00
20825;BME280;10573;50.936;6.978;2023-02-28T14:52:15;102374.22;;;17.65;19.67
20825;BME280;10573;50.936;6.978;2023-02-28T14:54:43;102378.19;;;17.15;20.18
20825;BME280;10573;50.936;6.978;2023-02-28T14:57:30;102369.78;;;16.68;20.85
20825;BME280;10573;50.936;6.978;2023-02-28T15:02:37;102361.69;;;15.36;21.44
20825;BME280;10573;50.936;6.978;2023-02-28T15:05:33;102371.47;;;15.59;21.30
20825;BME280;10573;50.936;6.978;2023-02-28T15:08:03;102345.28;;;14.72;22.18
20825;BME280;10573;50.936;6.978;2023-02-28T15:10:29;102355.19;;;14.85;22.39
20825;BME280;10573;50.936;6.978;2023-02-28T15:13:05;102353.03;;;16.32;20.59
20825;BME280;10573;50.936;6.978;2023-02-28T15:18:07;102353.66;;;13.95;22.71
20825;BME280;10573;50.936;6.978;2023-02-28T15:20:38;102343.69;;;13.93;23.52
20825;BME280;10573;50.936;6.978;2023-02-28T15:23:04;102349.59;;;15.17;22.33
20825;BME280;10573;50.936;6.978;2023-02-28T15:25:30;102357.34;;;15.33;21.61